Time;durP1;ratioP1;P1;durP2;ratioP2;P2;SDS_P1;SDS_P2;PMS_P1;PMS_P2;Temp;Humidity;BMP_temperature;BMP_pressure;BME280_temperature;BME280_humidity;BME280_pressure;Samples;Min_cycle;Max_cycle;Signal;HPM_P1;HPM_P2
2020/12/29 00:00:40;;;;;;;0.50;0.40;;;3.40;99.30;;;;;;5074908;28;20173;-67
2020/12/29 00:03:05;;;;;;;1.58;0.45;;;3.50;99.30;;;;;;5074552;28;20414;-67
2020/12/29 00:05:31;;;;;;;0.80;0.40;;;3.60;99.30;;;;;;5074751;28;20178;-67
2020/12/29 00:07:57;;;;;;;0.40;0.40;;;3.60;99.30;;;;;;5074667;28;20178;-67
2020/12/29 00:10:24;;;;;;;0.40;0.40;;;3.70;99.30;;;;;;5074679;28;20411;-67
2020/12/29 00:12:50;;;;;;;0.52;0.45;;;3.80;99.30;;;;;;5074336;28;20166;-67
2020/12/29 00:15:15;;;;;;;0.40;0.40;;;3.60;99.60;;;;;;5074481;28;20547;-67
2020/12/29 00:17:41;;;;;;;0.40;0.40;;;3.60;99.90;;;;;;5074314;28;20195;-67
2020/12/29 00:20:08;;;;;;;0.30;0.30;;;3.70;99.80;;;;;;5074379;28;20571;-67
2020/12/29 00:22:33;;;;;;;0.40;0.40;;;3.80;99.80;;;;;;5072638;28;20946;-67
2020/12/29 00:25:00;;;;;;;0.43;0.40;;;3.80;99.70;;;;;;5074408;28;20208;-67
2020/12/29 00:27:25;;;;;;;0.40;0.40;;;3.70;99.80;;;;;;5074127;28;20188;-67
2020/12/29 00:29:51;;;;;;;0.50;0.50;;;3.50;99.90;;;;;;5074275;28;20220;-67
2020/12/29 00:32:19;;;;;;;0.50;0.50;;;3.40;99.90;;;;;;5074154;28;20213;-67
2020/12/29 00:34:46;;;;;;;0.60;0.60;;;3.40;99.90;;;;;;5074264;28;20650;-67
2020/12/29 00:37:12;;;;;;;0.60;0.60;;;3.30;99.90;;;;;;5074048;28;20207;-67
2020/12/29 00:39:37;;;;;;;0.53;0.53;;;3.20;99.90;;;;;;5073933;28;20171;-67
2020/12/29 00:42:03;;;;;;;0.30;0.30;;;3.10;99.90;;;;;;5073779;28;20176;-66
2020/12/29 00:44:29;;;;;;;0.40;0.40;;;3.10;99.90;;;;;;5074215;28;20201;-66
2020/12/29 00:46:54;;;;;;;0.50;0.50;;;3.20;99.90;;;;;;5073857;28;20194;-67
2020/12/29 00:49:20;;;;;;;0.60;0.60;;;3.00;99.90;;;;;;5073677;28;20172;-67
2020/12/29 00:51:45;;;;;;;0.60;0.60;;;3.00;99.90;;;;;;5073541;28;20225;-67
2020/12/29 00:54:11;;;;;;;0.60;0.60;;;3.10;99.90;;;;;;5073644;28;20167;-67
2020/12/29 00:56:36;;;;;;;0.50;0.50;;;3.20;99.90;;;;;;5073894;28;20175;-67
2020/12/29 00:59:02;;;;;;;0.70;0.40;;;3.30;99.90;;;;;;5073598;28;20681;-67
2020/12/29 01:01:28;;;;;;;0.60;0.60;;;3.30;99.90;;;;;;5073536;28;20213;-67
2020/12/29 01:03:53;;;;;;;0.50;0.50;;;3.40;99.90;;;;;;5073705;28;20200;-67
2020/12/29 01:06:37;;;;;;;0.70;0.57;;;3.40;99.90;;;;;;5073806;28;20171;-67
2020/12/29 01:09:03;;;;;;;1.10;0.60;;;3.40;99.90;;;;;;5073566;28;20192;-67
2020/12/29 01:11:28;;;;;;;0.40;0.40;;;3.40;99.90;;;;;;5073539;28;20224;-66
2020/12/29 01:13:54;;;;;;;0.40;0.40;;;3.40;99.90;;;;;;5073583;28;20179;-67
2020/12/29 01:16:19;;;;;;;0.50;0.50;;;3.40;99.90;;;;;;5073626;28;20186;-67
2020/12/29 01:18:47;;;;;;;0.40;0.40;;;3.40;99.90;;;;;;5073570;28;20194;-67
2020/12/29 01:21:13;;;;;;;0.60;0.60;;;3.30;99.90;;;;;;5073216;28;20217;-67
2020/12/29 01:23:38;;;;;;;1.33;0.60;;;3.30;99.90;;;;;;5073212;28;20665;-67
2020/12/29 01:26:07;;;;;;;0.60;0.60;;;3.30;99.90;;;;;;5073425;28;20168;-67
2020/12/29 01:28:33;;;;;;;0.60;0.50;;;3.30;99.90;;;;;;5073294;28;20536;-67
2020/12/29 01:30:59;;;;;;;2.40;0.60;;;3.50;99.90;;;;;;5073323;28;20215;-67
2020/12/29 01:33:24;;;;;;;0.60;0.50;;;3.50;99.90;;;;;;5073517;28;20762;-67
2020/12/29 01:35:50;;;;;;;1.50;1.40;;;3.60;99.90;;;;;;5073732;28;20212;-67
2020/12/29 01:38:15;;;;;;;0.57;0.57;;;3.60;99.90;;;;;;5073312;28;20217;-67
2020/12/29 01:40:42;;;;;;;1.10;0.90;;;3.50;99.90;;;;;;5073311;28;20263;-66
2020/12/29 01:43:08;;;;;;;2.08;0.65;;;3.60;99.90;;;;;;5071891;28;20660;-67
2020/12/29 01:45:34;;;;;;;0.50;0.50;;;3.60;99.90;;;;;;5073435;28;20572;-66
2020/12/29 01:48:00;;;;;;;1.53;0.63;;;3.60;99.90;;;;;;5072043;28;20197;-67
2020/12/29 01:50:26;;;;;;;3.30;0.90;;;3.60;99.90;;;;;;5073389;28;20216;-67
2020/12/29 01:52:57;;;;;;;0.40;0.40;;;3.60;99.90;;;;;;5073007;28;20166;-67
2020/12/29 01:55:23;;;;;;;0.40;0.40;;;3.50;99.90;;;;;;5073176;28;20179;-67
2020/12/29 01:57:49;;;;;;;0.70;0.50;;;3.50;99.90;;;;;;5073262;28;20264;-67
2020/12/29 02:00:15;;;;;;;1.23;1.13;;;3.60;99.90;;;;;;5073048;28;20184;-67
2020/12/29 02:02:40;;;;;;;0.40;0.40;;;3.50;99.60;;;;;;5072740;28;20417;-67
2020/12/29 02:05:07;;;;;;;0.60;0.40;;;3.50;99.90;;;;;;5072824;28;20200;-67
2020/12/29 02:07:33;;;;;;;6.57;0.50;;;3.50;99.90;;;;;;5076595;28;20415;-67
2020/12/29 02:09:59;;;;;;;0.67;0.67;;;3.30;99.70;;;;;;5077126;28;20238;-67
2020/12/29 02:12:25;;;;;;;2.10;0.60;;;3.40;99.40;;;;;;5076705;28;20757;-67
2020/12/29 02:14:51;;;;;;;1.42;0.75;;;3.40;99.20;;;;;;5076862;28;20826;-67
2020/12/29 02:17:17;;;;;;;0.50;0.50;;;3.50;98.90;;;;;;5076784;28;20783;-67
2020/12/29 02:19:43;;;;;;;0.50;0.50;;;3.40;98.70;;;;;;5076856;28;20549;-67
2020/12/29 02:22:09;;;;;;;4.00;0.73;;;3.50;98.70;;;;;;5076621;28;20177;-67
2020/12/29 02:24:35;;;;;;;2.00;1.07;;;3.50;98.60;;;;;;5076498;28;20211;-67
2020/12/29 02:27:05;;;;;;;1.70;0.63;;;3.50;98.90;;;;;;5076625;28;20579;-67
2020/12/29 02:29:33;;;;;;;1.05;0.75;;;3.60;98.60;;;;;;5076455;28;20176;-67
2020/12/29 02:31:59;;;;;;;0.50;0.50;;;3.50;98.70;;;;;;5076288;28;20579;-67
2020/12/29 02:34:26;;;;;;;0.82;0.57;;;3.60;98.30;;;;;;5076519;28;20200;-67
2020/12/29 02:36:52;;;;;;;1.10;0.60;;;3.50;98.40;;;;;;5076471;28;20170;-67
2020/12/29 02:39:18;;;;;;;2.55;1.05;;;3.50;98.60;;;;;;5076370;28;20659;-66
2020/12/29 02:41:43;;;;;;;3.00;1.00;;;3.30;98.50;;;;;;5076178;28;20260;-67
2020/12/29 02:44:19;;;;;;;1.43;0.80;;;3.30;98.70;;;;;;5076312;28;20201;-67
2020/12/29 02:46:48;;;;;;;1.67;1.23;;;3.50;98.60;;;;;;5076601;28;20638;-67
2020/12/29 02:49:14;;;;;;;6.93;0.70;;;3.60;98.20;;;;;;5076190;28;20188;-67
2020/12/29 02:51:39;;;;;;;0.40;0.40;;;3.50;98.70;;;;;;5076029;28;20174;-67
2020/12/29 02:54:05;;;;;;;0.70;0.70;;;3.60;99.10;;;;;;5076220;28;20539;-67
2020/12/29 02:56:31;;;;;;;0.90;0.90;;;3.50;98.80;;;;;;5076138;28;20164;-67
2020/12/29 02:58:56;;;;;;;0.53;0.53;;;3.50;98.80;;;;;;5075807;28;20200;-67
2020/12/29 03:01:26;;;;;;;2.83;0.60;;;3.60;99.20;;;;;;5074444;28;20223;-67
2020/12/29 03:03:52;;;;;;;0.70;0.70;;;3.60;98.90;;;;;;5075823;28;20194;-67
2020/12/29 03:06:18;;;;;;;1.63;0.73;;;3.60;99.10;;;;;;5075908;28;20282;-67
2020/12/29 03:08:43;;;;;;;2.00;1.03;;;3.50;99.70;;;;;;5075776;28;20595;-67
2020/12/29 03:11:09;;;;;;;0.50;0.50;;;3.40;99.90;;;;;;5075767;28;20177;-67
2020/12/29 03:13:34;;;;;;;1.50;0.63;;;3.30;99.90;;;;;;5075779;28;20177;-67
2020/12/29 03:16:00;;;;;;;2.50;1.10;;;3.30;99.90;;;;;;5075611;28;20229;-67
2020/12/29 03:18:26;;;;;;;1.43;0.60;;;3.20;99.90;;;;;;5075120;28;20190;-67
2020/12/29 03:20:51;;;;;;;0.43;0.43;;;3.00;99.90;;;;;;5075555;28;20573;-67
2020/12/29 03:23:17;;;;;;;3.07;1.00;;;3.00;99.90;;;;;;5075250;28;20197;-67
2020/12/29 03:25:42;;;;;;;1.07;0.40;;;2.90;99.90;;;;;;5075637;28;20539;-66
2020/12/29 03:28:08;;;;;;;0.73;0.70;;;2.70;99.90;;;;;;5075410;28;20544;-66
2020/12/29 03:30:33;;;;;;;0.70;0.53;;;2.50;99.90;;;;;;5075573;28;20162;-67
2020/12/29 03:32:59;;;;;;;0.87;0.50;;;2.60;99.90;;;;;;5075180;28;20176;-67
2020/12/29 03:35:25;;;;;;;1.10;0.83;;;2.70;99.90;;;;;;5075479;28;20194;-67
2020/12/29 03:37:50;;;;;;;0.87;0.83;;;2.80;99.90;;;;;;5075178;28;20182;-67
2020/12/29 03:40:16;;;;;;;0.33;0.33;;;2.90;99.90;;;;;;5075292;28;20178;-67
2020/12/29 03:42:41;;;;;;;5.70;1.83;;;2.90;99.90;;;;;;5074939;28;20176;-67
2020/12/29 03:45:07;;;;;;;2.10;0.50;;;2.90;99.90;;;;;;5075210;28;20203;-67
2020/12/29 03:47:33;;;;;;;1.73;0.70;;;3.00;99.90;;;;;;5075090;28;20187;-67
2020/12/29 03:49:58;;;;;;;0.50;0.50;;;3.10;99.90;;;;;;5075118;28;20169;-66
2020/12/29 03:52:24;;;;;;;1.03;1.03;;;3.10;99.70;;;;;;5074858;28;20164;-67
2020/12/29 03:54:49;;;;;;;3.40;0.80;;;3.20;99.60;;;;;;5074998;28;20180;-67
2020/12/29 03:57:15;;;;;;;0.70;0.70;;;3.20;99.90;;;;;;5074924;28;20315;-67
2020/12/29 03:59:40;;;;;;;1.03;0.97;;;3.20;99.90;;;;;;5074790;28;20168;-66
2020/12/29 04:02:09;;;;;;;0.70;0.60;;;3.30;99.90;;;;;;5074567;28;20168;-67
2020/12/29 04:04:36;;;;;;;1.63;1.40;;;3.20;99.80;;;;;;5074651;28;20202;-67
2020/12/29 04:07:02;;;;;;;5.22;0.98;;;2.90;99.70;;;;;;5074716;28;20171;-67
2020/12/29 04:09:30;;;;;;;0.88;0.70;;;2.70;99.90;;;;;;5074609;28;20170;-67
2020/12/29 04:11:56;;;;;;;1.20;0.70;;;2.70;99.90;;;;;;5074411;28;20170;-67
2020/12/29 04:14:21;;;;;;;0.50;0.50;;;2.80;99.90;;;;;;5074691;28;20175;-67
2020/12/29 04:16:47;;;;;;;6.10;0.97;;;3.00;99.90;;;;;;5074428;28;20174;-67
2020/12/29 04:19:13;;;;;;;2.30;0.83;;;3.00;99.90;;;;;;5074290;28;20195;-67
2020/12/29 04:21:38;;;;;;;3.50;0.93;;;3.00;99.80;;;;;;5074244;28;20174;-67
2020/12/29 04:24:04;;;;;;;0.50;0.47;;;3.00;99.90;;;;;;5074072;28;20703;-67
2020/12/29 04:26:29;;;;;;;2.10;0.50;;;2.90;99.70;;;;;;5074125;28;20181;-67
2020/12/29 04:28:55;;;;;;;0.53;0.53;;;2.90;99.40;;;;;;5073638;28;20180;-67
2020/12/29 04:31:23;;;;;;;1.80;1.70;;;3.00;99.50;;;;;;5073894;28;20168;-67
2020/12/29 04:33:49;;;;;;;0.73;0.73;;;3.00;99.10;;;;;;5074231;28;20170;-67
2020/12/29 04:36:15;;;;;;;2.67;1.23;;;3.10;99.30;;;;;;5074172;28;20552;-67
2020/12/29 04:38:40;;;;;;;4.70;1.30;;;3.10;99.20;;;;;;5074029;28;20186;-67
2020/12/29 04:41:06;;;;;;;0.93;0.50;;;3.20;98.90;;;;;;5073753;28;20169;-67
2020/12/29 04:43:33;;;;;;;0.93;0.67;;;3.30;98.80;;;;;;5074085;28;20194;-67
2020/12/29 04:46:03;;;;;;;0.82;0.65;;;3.20;98.70;;;;;;5073929;28;20227;-67
2020/12/29 04:48:30;;;;;;;1.50;0.80;;;3.10;98.70;;;;;;5073791;28;20264;-67
2020/12/29 04:51:08;;;;;;;0.70;0.70;;;3.20;98.60;;;;;;5072497;28;20204;-67
2020/12/29 04:53:35;;;;;;;1.55;1.35;;;3.20;98.50;;;;;;5073941;28;20179;-67
2020/12/29 04:56:04;;;;;;;6.63;1.17;;;3.40;98.50;;;;;;5073746;28;20176;-67
2020/12/29 04:58:32;;;;;;;0.73;0.73;;;3.40;98.20;;;;;;5073602;28;20191;-67
2020/12/29 05:01:06;;;;;;;1.70;0.55;;;3.40;98.10;;;;;;5073697;28;20179;-67
2020/12/29 05:03:46;;;;;;;0.88;0.88;;;3.40;98.30;;;;;;5073713;28;20250;-67
2020/12/29 05:06:12;;;;;;;3.22;1.52;;;3.40;98.10;;;;;;5074045;28;20169;-67
2020/12/29 05:08:46;;;;;;;4.20;1.48;;;3.20;97.90;;;;;;5073500;28;20670;-67
2020/12/29 05:11:13;;;;;;;0.85;0.70;;;3.30;98.10;;;;;;5073788;28;20202;-67
2020/12/29 05:13:39;;;;;;;2.35;0.80;;;3.30;97.90;;;;;;5073646;28;20586;-67
2020/12/29 05:16:04;;;;;;;0.60;0.60;;;3.30;97.80;;;;;;5073707;28;20205;-67
2020/12/29 05:18:30;;;;;;;1.13;0.77;;;3.30;98.20;;;;;;5073594;28;20201;-67
2020/12/29 05:20:57;;;;;;;0.83;0.80;;;3.30;98.20;;;;;;5073253;28;20418;-67
2020/12/29 05:23:22;;;;;;;0.52;0.40;;;3.20;98.70;;;;;;5073327;28;20635;-67
2020/12/29 05:25:49;;;;;;;0.70;0.63;;;3.00;98.80;;;;;;5073808;28;20168;-67
2020/12/29 05:28:15;;;;;;;3.22;2.30;;;3.00;98.30;;;;;;5073464;28;20191;-67
2020/12/29 05:30:41;;;;;;;2.73;0.60;;;2.90;98.30;;;;;;5073382;28;20177;-67
2020/12/29 05:33:11;;;;;;;1.23;1.00;;;2.90;99.20;;;;;;5073294;28;20650;-67
2020/12/29 05:35:38;;;;;;;0.80;0.50;;;2.80;99.50;;;;;;5073345;28;20168;-67
2020/12/29 05:38:03;;;;;;;0.30;0.30;;;2.60;99.90;;;;;;5073290;28;20604;-67
2020/12/29 05:40:30;;;;;;;4.40;0.80;;;2.40;99.90;;;;;;5075404;28;20171;-67
2020/12/29 05:42:58;;;;;;;0.50;0.50;;;2.40;99.90;;;;;;5077191;28;20400;-67
2020/12/29 05:45:25;;;;;;;0.90;0.75;;;2.60;99.90;;;;;;5077465;28;20304;-67
2020/12/29 05:48:01;;;;;;;0.70;0.70;;;2.60;99.90;;;;;;5077424;28;20266;-67
2020/12/29 05:50:28;;;;;;;0.65;0.50;;;2.70;99.90;;;;;;5077447;28;20185;-67
2020/12/29 05:52:58;;;;;;;0.63;0.63;;;2.70;99.90;;;;;;5077160;28;20159;-67
2020/12/29 05:55:24;;;;;;;2.45;0.65;;;2.80;99.90;;;;;;5077353;28;20236;-67
2020/12/29 05:58:06;;;;;;;0.68;0.57;;;2.80;99.90;;;;;;5077235;28;20731;-67
2020/12/29 06:00:33;;;;;;;1.85;0.60;;;2.90;99.90;;;;;;5077308;28;20174;-67
2020/12/29 06:03:00;;;;;;;0.80;0.52;;;2.80;99.90;;;;;;5076893;28;20537;-66
2020/12/29 06:05:27;;;;;;;0.70;0.70;;;2.90;99.90;;;;;;5076967;28;20194;-67
2020/12/29 06:07:55;;;;;;;1.40;0.90;;;2.90;99.90;;;;;;5076960;28;20210;-67
2020/12/29 06:10:21;;;;;;;0.50;0.50;;;2.90;99.80;;;;;;5076920;28;20640;-67
2020/12/29 06:12:55;;;;;;;2.78;0.60;;;2.90;99.80;;;;;;5076620;28;20171;-67
2020/12/29 06:15:26;;;;;;;0.82;0.80;;;2.90;99.90;;;;;;5077241;28;20173;-67
2020/12/29 06:18:00;;;;;;;1.10;1.00;;;3.00;99.70;;;;;;5076856;28;20184;-67
2020/12/29 06:20:57;;;;;;;0.75;0.70;;;3.20;99.30;;;;;;5077070;28;20161;-67
2020/12/29 06:23:28;;;;;;;1.95;0.77;;;3.10;98.80;;;;;;5076113;28;20192;-67
2020/12/29 06:25:57;;;;;;;0.88;0.88;;;3.20;99.00;;;;;;5076624;28;20522;-67
2020/12/29 06:28:27;;;;;;;0.60;0.60;;;3.30;99.30;;;;;;5076535;28;20195;-67
2020/12/29 06:30:56;;;;;;;0.50;0.50;;;3.30;98.60;;;;;;5076528;28;20298;-67
2020/12/29 06:33:23;;;;;;;2.78;0.85;;;3.40;98.50;;;;;;5076553;28;20203;-67
2020/12/29 06:35:50;;;;;;;0.82;0.70;;;3.30;98.40;;;;;;5076268;28;20174;-66
2020/12/29 06:38:23;;;;;;;0.80;0.77;;;3.40;98.70;;;;;;5076399;28;20185;-67
2020/12/29 06:40:51;;;;;;;2.85;0.93;;;3.50;98.10;;;;;;5076494;28;20524;-67
2020/12/29 06:43:17;;;;;;;1.25;1.00;;;3.30;98.40;;;;;;5076136;28;20234;-67
2020/12/29 06:45:43;;;;;;;1.65;0.60;;;3.20;98.50;;;;;;5076651;28;20169;-67
2020/12/29 06:48:19;;;;;;;3.13;1.00;;;3.30;98.30;;;;;;5076180;28;20211;-67
2020/12/29 06:50:45;;;;;;;4.82;0.85;;;3.40;98.40;;;;;;5076332;28;20191;-67
2020/12/29 06:53:16;;;;;;;0.63;0.60;;;3.30;98.00;;;;;;5075252;28;20179;-66
2020/12/29 06:55:50;;;;;;;3.40;1.10;;;3.20;98.10;;;;;;5076250;28;20250;-67
2020/12/29 06:58:34;;;;;;;2.35;1.08;;;3.00;98.20;;;;;;5075989;28;20660;-67
2020/12/29 07:01:22;;;;;;;0.80;0.80;;;2.90;98.90;;;;;;5074437;28;20167;-67
2020/12/29 07:04:09;;;;;;;0.50;0.50;;;2.90;99.10;;;;;;5076160;28;20204;-67
2020/12/29 07:06:36;;;;;;;3.10;0.82;;;2.90;99.60;;;;;;5076016;28;20188;-67
2020/12/29 07:09:09;;;;;;;0.52;0.52;;;3.00;99.10;;;;;;5075681;28;20213;-67
2020/12/29 07:11:35;;;;;;;0.98;0.60;;;3.20;99.00;;;;;;5075775;28;20169;-67
2020/12/29 07:14:05;;;;;;;2.80;1.20;;;3.30;98.70;;;;;;5075735;28;20266;-67
2020/12/29 07:16:31;;;;;;;0.73;0.70;;;3.40;98.30;;;;;;5074524;28;20255;-67
2020/12/29 07:19:10;;;;;;;1.67;0.93;;;3.40;98.50;;;;;;5075578;28;20207;-67
2020/12/29 07:21:37;;;;;;;2.05;1.15;;;3.40;98.80;;;;;;5075544;28;20212;-67
2020/12/29 07:24:06;;;;;;;2.33;0.80;;;3.40;98.70;;;;;;5075439;28;20207;-67
2020/12/29 07:26:40;;;;;;;3.53;0.68;;;3.40;98.50;;;;;;5075703;28;20215;-67
2020/12/29 07:29:07;;;;;;;8.48;0.95;;;3.40;98.80;;;;;;5075368;28;20192;-67
2020/12/29 07:31:35;;;;;;;0.85;0.80;;;3.50;98.60;;;;;;5075280;28;20257;-67
2020/12/29 07:34:02;;;;;;;0.60;0.60;;;3.70;98.50;;;;;;5075488;28;20178;-67
2020/12/29 07:36:29;;;;;;;0.93;0.82;;;3.80;98.20;;;;;;5075663;28;20174;-67
2020/12/29 07:38:55;;;;;;;0.60;0.60;;;3.60;98.20;;;;;;5075157;28;20734;-67
2020/12/29 07:41:21;;;;;;;6.05;1.55;;;3.60;98.60;;;;;;5075076;28;20177;-67
2020/12/29 07:43:47;;;;;;;1.00;0.90;;;3.70;98.80;;;;;;5075212;28;20337;-67
2020/12/29 07:46:13;;;;;;;1.40;0.57;;;3.70;98.90;;;;;;5075264;28;20399;-67
2020/12/29 07:48:40;;;;;;;1.23;1.13;;;3.60;99.00;;;;;;5073708;28;20191;-67
2020/12/29 07:51:06;;;;;;;0.70;0.70;;;3.50;99.40;;;;;;5074812;28;20165;-67
2020/12/29 07:53:33;;;;;;;0.80;0.60;;;3.30;99.20;;;;;;5075153;28;20181;-67
2020/12/29 07:59:21;;;;;;;2.35;1.40;;;3.50;99.20;;;;;;5048554;28;20681;-67
2020/12/29 08:01:55;;;;;;;0.82;0.65;;;3.60;98.80;;;;;;5037734;28;20263;-67
2020/12/29 08:04:32;;;;;;;0.73;0.65;;;3.50;98.50;;;;;;5033962;28;20201;-67
2020/12/29 08:06:59;;;;;;;6.30;1.00;;;3.40;98.80;;;;;;5033401;28;20169;-67
2020/12/29 08:09:25;;;;;;;1.00;0.90;;;3.40;99.00;;;;;;5034622;28;20727;-67
2020/12/29 08:11:51;;;;;;;2.03;1.15;;;3.40;98.80;;;;;;5035113;28;20215;-67
2020/12/29 08:14:17;;;;;;;1.33;0.70;;;3.50;98.90;;;;;;5034777;28;20176;-67
2020/12/29 08:16:43;;;;;;;1.17;0.70;;;3.40;99.20;;;;;;5034435;28;20401;-67
2020/12/29 08:19:12;;;;;;;0.80;0.80;;;3.30;99.00;;;;;;5034661;28;20191;-67
2020/12/29 08:21:38;;;;;;;0.70;0.68;;;3.20;99.60;;;;;;5034606;28;20219;-67
2020/12/29 08:24:06;;;;;;;1.00;0.90;;;3.20;99.10;;;;;;5034511;28;20201;-67
2020/12/29 08:26:32;;;;;;;1.15;0.80;;;3.20;99.30;;;;;;5034231;28;20171;-67
2020/12/29 08:28:58;;;;;;;12.70;1.20;;;3.40;99.30;;;;;;5034518;28;20214;-67
2020/12/29 08:31:26;;;;;;;1.50;0.83;;;3.30;99.00;;;;;;5034372;28;20619;-67
2020/12/29 08:33:53;;;;;;;2.35;1.02;;;3.40;99.10;;;;;;5034478;28;20493;-67
2020/12/29 08:36:27;;;;;;;2.67;0.90;;;3.50;98.80;;;;;;5034389;28;20201;-67
2020/12/29 08:39:34;;;;;;;0.70;0.70;;;3.60;98.60;;;;;;5034193;28;20198;-67
2020/12/29 08:42:02;;;;;;;0.93;0.82;;;3.70;98.50;;;;;;5026074;28;20244;-67
2020/12/29 08:44:31;;;;;;;0.65;0.65;;;3.80;98.50;;;;;;5034246;28;20230;-67
2020/12/29 08:46:56;;;;;;;0.80;0.80;;;3.60;98.50;;;;;;5033912;28;20173;-67
2020/12/29 08:49:30;;;;;;;0.93;0.60;;;3.70;98.30;;;;;;5033890;28;20559;-67
2020/12/29 08:51:56;;;;;;;7.40;1.05;;;4.00;98.20;;;;;;5033996;28;20644;-67
2020/12/29 08:54:23;;;;;;;5.95;2.38;;;4.10;97.60;;;;;;5034314;28;20707;-67
2020/12/29 08:56:49;;;;;;;1.00;1.00;;;4.20;97.60;;;;;;5033806;28;20175;-67
2020/12/29 08:59:16;;;;;;;2.00;1.67;;;4.40;97.40;;;;;;5033872;28;20198;-67
2020/12/29 09:02:03;;;;;;;0.70;0.70;;;4.50;97.00;;;;;;5033607;28;20198;-67
2020/12/29 09:04:33;;;;;;;1.60;0.95;;;4.50;96.70;;;;;;5033375;28;20701;-67
2020/12/29 09:07:13;;;;;;;1.02;0.90;;;4.40;96.50;;;;;;5033532;28;20174;-67
2020/12/29 09:09:50;;;;;;;1.20;1.10;;;4.40;97.30;;;;;;5033837;28;20189;-67
2020/12/29 09:12:17;;;;;;;2.30;1.00;;;4.40;97.10;;;;;;5033847;28;20551;-67
2020/12/29 09:14:55;;;;;;;3.25;1.42;;;4.50;96.80;;;;;;5034253;28;20171;-67
2020/12/29 09:17:22;;;;;;;1.25;0.90;;;4.60;96.80;;;;;;5033703;28;20206;-67
2020/12/29 09:20:29;;;;;;;1.48;0.73;;;4.50;96.60;;;;;;5033468;28;20710;-67
2020/12/29 09:23:02;;;;;;;1.90;0.80;;;4.80;96.50;;;;;;5033641;28;20246;-67
2020/12/29 09:25:33;;;;;;;2.55;0.68;;;4.80;96.40;;;;;;5033345;28;20225;-67
2020/12/29 09:28:17;;;;;;;0.60;0.60;;;4.80;95.80;;;;;;5033602;28;20602;-67
2020/12/29 09:30:45;;;;;;;2.03;1.08;;;4.30;96.20;;;;;;5033475;28;20163;-67
2020/12/29 09:33:11;;;;;;;1.23;1.10;;;4.50;96.70;;;;;;5033525;28;20171;-67
2020/12/29 09:35:37;;;;;;;4.25;0.85;;;4.70;96.20;;;;;;5033463;28;20179;-67
2020/12/29 09:38:03;;;;;;;1.00;1.00;;;4.70;96.20;;;;;;5033412;28;20190;-67
2020/12/29 09:40:29;;;;;;;2.60;1.07;;;4.80;96.10;;;;;;5033393;28;20628;-67
2020/12/29 09:42:55;;;;;;;1.67;1.57;;;4.50;96.00;;;;;;5033643;28;20163;-67
2020/12/29 09:45:22;;;;;;;1.15;1.05;;;4.70;96.10;;;;;;5033125;28;20453;-67
2020/12/29 09:47:49;;;;;;;0.80;0.80;;;4.60;96.10;;;;;;5033412;28;20195;-67
2020/12/29 09:50:15;;;;;;;5.75;1.15;;;4.60;96.60;;;;;;5033481;28;20258;-67
2020/12/29 09:52:40;;;;;;;5.40;3.95;;;4.70;96.60;;;;;;5033282;28;20628;-67
2020/12/29 09:55:06;;;;;;;5.23;2.73;;;4.70;96.70;;;;;;5033373;28;20232;-67
2020/12/29 09:57:33;;;;;;;5.07;2.10;;;4.60;96.40;;;;;;5033083;28;20275;-67
2020/12/29 09:59:59;;;;;;;4.63;2.20;;;4.50;96.30;;;;;;5033063;28;20179;-67
2020/12/29 10:02:24;;;;;;;1.97;1.80;;;4.60;96.40;;;;;;5033369;28;20177;-67
2020/12/29 10:04:50;;;;;;;1.27;1.17;;;4.60;96.10;;;;;;5033301;28;20548;-67
2020/12/29 10:07:16;;;;;;;1.67;1.57;;;4.70;96.30;;;;;;5033011;28;20254;-67
2020/12/29 10:09:41;;;;;;;1.27;0.60;;;4.80;95.90;;;;;;5033054;28;20187;-67
2020/12/29 10:12:07;;;;;;;3.57;1.20;;;4.90;96.10;;;;;;5033143;28;20181;-67
2020/12/29 10:14:33;;;;;;;4.00;1.80;;;5.00;95.60;;;;;;5033191;28;20174;-67
2020/12/29 10:16:58;;;;;;;6.60;1.03;;;5.00;95.40;;;;;;5032779;28;20167;-67
2020/12/29 10:19:24;;;;;;;1.30;1.17;;;5.00;95.20;;;;;;5032947;28;20202;-67
2020/12/29 10:21:51;;;;;;;2.87;1.17;;;5.00;95.30;;;;;;5033031;28;20250;-67
2020/12/29 10:24:17;;;;;;;1.88;0.88;;;4.80;95.30;;;;;;5033084;28;20195;-67
2020/12/29 10:26:43;;;;;;;4.43;1.13;;;4.70;95.60;;;;;;5033723;28;20175;-67
2020/12/29 10:29:08;;;;;;;1.10;0.80;;;4.60;95.50;;;;;;5036682;28;20433;-66
2020/12/29 10:31:34;;;;;;;1.50;0.77;;;4.80;95.60;;;;;;5035273;28;20210;-67
2020/12/29 10:34:02;;;;;;;0.60;0.60;;;5.10;95.60;;;;;;5036524;28;20171;-67
2020/12/29 10:36:34;;;;;;;2.78;0.90;;;5.40;95.00;;;;;;5036531;28;20178;-67
2020/12/29 10:39:00;;;;;;;0.55;0.55;;;5.60;94.10;;;;;;5036344;28;20198;-67
2020/12/29 10:41:29;;;;;;;4.30;0.80;;;5.30;94.10;;;;;;5036496;28;20178;-67
2020/12/29 10:43:55;;;;;;;0.95;0.80;;;5.20;94.20;;;;;;5036427;28;20194;-67
2020/12/29 10:46:22;;;;;;;1.00;0.90;;;5.20;94.40;;;;;;5036228;28;20162;-67
2020/12/29 10:48:47;;;;;;;1.90;1.65;;;5.50;94.50;;;;;;5036164;28;20432;-67
2020/12/29 10:51:20;;;;;;;0.70;0.70;;;5.90;94.40;;;;;;5036278;28;20171;-67
2020/12/29 10:53:46;;;;;;;1.15;0.90;;;6.00;93.30;;;;;;5036128;28;20648;-67
2020/12/29 10:56:12;;;;;;;1.10;1.00;;;5.90;92.90;;;;;;5035967;28;20518;-67
2020/12/29 10:58:39;;;;;;;1.07;0.80;;;5.70;93.30;;;;;;5036184;28;20198;-67
2020/12/29 11:01:06;;;;;;;1.15;1.05;;;5.70;93.80;;;;;;5036164;28;20214;-67
2020/12/29 11:03:31;;;;;;;1.20;0.70;;;5.90;94.10;;;;;;5035945;28;20210;-67
2020/12/29 11:05:57;;;;;;;1.07;0.90;;;6.00;93.70;;;;;;5036036;28;20169;-67
2020/12/29 11:08:26;;;;;;;1.77;1.30;;;6.00;93.50;;;;;;5036024;28;20191;-67
2020/12/29 11:10:52;;;;;;;1.70;0.63;;;5.80;93.40;;;;;;5035911;28;20233;-67
2020/12/29 11:13:18;;;;;;;0.65;0.65;;;5.60;93.80;;;;;;5035966;28;20171;-67
2020/12/29 11:15:44;;;;;;;0.50;0.50;;;5.40;94.10;;;;;;5036054;28;20174;-67
2020/12/29 11:18:09;;;;;;;0.70;0.70;;;5.30;93.60;;;;;;5035731;28;20187;-67
2020/12/29 11:20:35;;;;;;;0.97;0.73;;;5.50;93.90;;;;;;5035673;28;20174;-67
2020/12/29 11:23:00;;;;;;;2.30;0.90;;;5.50;93.90;;;;;;5035868;28;20174;-67
2020/12/29 11:25:26;;;;;;;1.43;0.70;;;6.10;93.80;;;;;;5035539;28;20207;-67
2020/12/29 11:27:52;;;;;;;0.80;0.77;;;6.80;92.70;;;;;;5035692;28;20324;-67
2020/12/29 11:30:17;;;;;;;2.57;0.70;;;7.20;91.80;;;;;;5035957;28;20187;-67
2020/12/29 11:32:43;;;;;;;1.70;0.73;;;7.30;91.40;;;;;;5035691;28;20175;-67
2020/12/29 11:35:09;;;;;;;1.43;0.90;;;7.60;90.80;;;;;;5035496;28;20175;-67
2020/12/29 11:37:34;;;;;;;1.27;1.17;;;7.60;90.50;;;;;;5035024;28;20262;-67
2020/12/29 11:40:00;;;;;;;0.83;0.83;;;7.60;90.20;;;;;;5035482;28;20217;-67
2020/12/29 11:42:28;;;;;;;2.77;0.73;;;7.30;90.20;;;;;;5035416;28;20176;-67
2020/12/29 11:44:54;;;;;;;1.60;1.40;;;7.30;90.30;;;;;;5035400;28;20698;-67
2020/12/29 11:47:19;;;;;;;3.20;1.10;;;7.40;90.20;;;;;;5035121;28;20178;-67
2020/12/29 11:49:45;;;;;;;2.30;0.70;;;7.20;90.30;;;;;;5035084;28;20192;-67
2020/12/29 11:52:11;;;;;;;3.23;1.00;;;7.10;90.60;;;;;;5035237;28;20699;-67
2020/12/29 11:54:36;;;;;;;2.67;0.93;;;7.30;89.70;;;;;;5035219;28;20213;-67
2020/12/29 11:57:02;;;;;;;0.60;0.60;;;7.70;90.00;;;;;;5034800;28;20202;-68
2020/12/29 11:59:27;;;;;;;4.20;1.23;;;7.80;88.20;;;;;;5035112;28;20204;-67
2020/12/29 12:01:53;;;;;;;0.80;0.70;;;7.80;88.70;;;;;;5034854;28;20245;-67
2020/12/29 12:04:19;;;;;;;1.30;0.80;;;7.40;88.20;;;;;;5035019;28;20597;-68
2020/12/29 12:06:45;;;;;;;3.60;1.03;;;7.30;89.40;;;;;;5033361;28;20699;-67
2020/12/29 12:09:12;;;;;;;0.80;0.73;;;7.30;90.20;;;;;;5034860;28;20550;-67
2020/12/29 12:11:38;;;;;;;1.85;0.77;;;7.10;89.80;;;;;;5034653;28;20175;-67
2020/12/29 12:14:04;;;;;;;1.38;0.90;;;7.00;90.00;;;;;;5035028;28;20179;-67
2020/12/29 12:16:36;;;;;;;0.93;0.93;;;6.90;90.10;;;;;;5034444;28;20662;-67
2020/12/29 12:19:01;;;;;;;1.35;0.90;;;6.80;90.20;;;;;;5033262;28;20615;-67
2020/12/29 12:21:31;;;;;;;1.17;1.07;;;6.90;90.30;;;;;;5034734;28;20176;-67
2020/12/29 12:23:57;;;;;;;1.60;1.15;;;6.90;90.50;;;;;;5034556;28;20195;-67
2020/12/29 12:26:23;;;;;;;0.80;0.80;;;6.60;89.60;;;;;;5034314;28;20239;-67
2020/12/29 12:28:49;;;;;;;2.37;1.17;;;6.10;91.00;;;;;;5034319;28;20217;-67
2020/12/29 12:31:15;;;;;;;0.90;0.80;;;6.00;91.70;;;;;;5034570;28;20207;-67
2020/12/29 12:33:42;;;;;;;1.20;0.73;;;5.90;93.10;;;;;;5034428;28;20175;-67
2020/12/29 12:36:08;;;;;;;3.45;0.82;;;6.00;92.70;;;;;;5034146;28;20250;-67
2020/12/29 12:38:34;;;;;;;2.93;1.23;;;6.00;92.90;;;;;;5034209;28;20650;-67
2020/12/29 12:41:00;;;;;;;0.97;0.93;;;6.10;92.40;;;;;;5032879;28;20541;-67
2020/12/29 12:43:26;;;;;;;1.13;0.90;;;6.30;92.20;;;;;;5034275;28;20406;-67
2020/12/29 12:45:51;;;;;;;1.83;1.13;;;6.40;91.60;;;;;;5034064;28;20194;-67
2020/12/29 12:48:17;;;;;;;2.20;1.17;;;6.70;91.80;;;;;;5034190;28;20189;-67
2020/12/29 12:50:43;;;;;;;1.00;0.83;;;6.80;91.50;;;;;;5033447;28;20174;-67
2020/12/29 12:53:09;;;;;;;2.50;1.05;;;6.50;90.80;;;;;;5034081;28;20172;-67
2020/12/29 12:55:35;;;;;;;1.80;1.07;;;6.40;91.40;;;;;;5033925;28;20519;-67
2020/12/29 12:58:00;;;;;;;2.40;1.40;;;6.50;90.80;;;;;;5034152;28;20268;-67
2020/12/29 13:00:26;;;;;;;1.17;0.90;;;6.50;90.50;;;;;;5033718;28;20656;-67
2020/12/29 13:02:52;;;;;;;2.87;1.10;;;6.40;90.40;;;;;;5033897;28;20759;-67